KNTU/NTU METAR and TAF weather

Enter ICAO airport designator
Station Type Date Time Source
KNTU METAR 2020/01/27 13:56 UTC NOAA

KNTU 271356Z 23007KT 10SM SCT200 03/M01 A2989 RMK AO2 SLP123 T00331006


Station Type Date Time Source
KNTU Decoded METAR 2020/01/27 13:56 UTC NOAA

OCEANA, NAVAL AIR STATION, VA, United States (KNTU) 36-49N 076-02W 6M
Jan 27, 2020 - 08:56 AM EST / 2020.01.27 1356 UTC
Wind: from the SW (230 degrees) at 8 MPH (7 KT):0
Visibility: 10 mile(s):0
Sky conditions: partly cloudy
Temperature: 37.9 F (3.3 C)
Dew Point: 30.9 F (-0.6 C)
Relative Humidity: 75%
Pressure (altimeter): 29.89 in. Hg (1012 hPa)
ob: KNTU 271356Z 23007KT 10SM SCT200 03/M01 A2989 RMK AO2 SLP123 T00331006
cycle: 14

Station Type Date Time Source
KNTU TAF 2020/01/27 07:13 UTC NOAA

TAF KNTU 2707/2807 26005KT 9999 FEW040 QNH2983INS
BECMG 2714/2715 25010KT 9999 FEW010 QNH2977INS
BECMG 2720/2021 25010KT 9999 FEW030 BKN060 BKN100 QNH2975INS
BECMG 2723/2800 31007KT 9999 FEW010 BKN040 OVC100 QNH2978INS T04/2710Z T11/2721Z FN00197

Example: see airport list